Flight Track Log - Related Links

Times and Time Zones

All times are in EDT time to prevent confusion due to time zone crossing. See the N747DJ flight status page for this flight to view local times or setup timezone preferences in your user account.

Time Position Orientation Groundspeed Altitude Reporting Facility
EDT Latitude Longitude Course Direction KTS MPH feet Rate Location/Type
Fri 05:02:22 PM 40.1792 -75.9003 298° West 148 170 7,500  Level New York Center
Fri 05:03:22 PM 40.1981 -75.9478 298° West 148 170 7,800 605 Climbing New York Center
Fri 05:04:21 PM 40.2228 -76.0014 301° West 148 170 8,700 706 Climbing New York Center
Fri 05:05:21 PM 40.2394 -76.0461 296° West 153 176 9,200 595 Climbing New York Center
Fri 05:06:22 PM 40.2622 -76.0967 301° West 153 176 9,900 595 Climbing New York Center
Fri 05:07:00 PM 40.2686 -76.2628 298° West  Level Estimated
Fri 05:07:22 PM 40.2811 -76.1389 300° West 153 176 10,400  Level New York Center
Fri 05:08:21 PM 40.3000 -76.1814 300° West 148 170 10,600 50 Climbing New York Center
Fri 05:09:22 PM 40.3183 -76.2344 294° West 148 170 10,500  Descending New York Center
Fri 05:10:23 PM 40.3572 -76.2947 310° West 154 177 10,600  Climbing New York Center
Fri 05:11:23 PM 40.3867 -76.3353 314° West 159 183 10,500 -51 Descending New York Center
Fri 05:12:21 PM 40.4175 -76.3894 307° West 172 198 10,500 51 Level New York Center
Fri 05:13:21 PM 40.4361 -76.4375 297° West 172 198 10,600 50 Climbing New York Center
Fri 05:14:22 PM 40.4603 -76.4967 298° West 167 192 10,600 -50 Level New York Center
Fri 05:15:22 PM 40.4808 -76.5447 299° West 167 192 10,500 -50 Descending New York Center
Fri 05:16:23 PM 40.5031 -76.6039 296° West 167 192 10,500 50 Level New York Center
Fri 05:17:22 PM 40.5194 -76.6519 294° West 167 192 10,600 50 Climbing New York Center
Fri 05:18:22 PM 40.5433 -76.7114 298° West 167 192 10,600 -50 Level New York Center
Fri 05:19:23 PM 40.5686 -76.7517 310° West 162 186 10,500 -51 Descending New York Center
Fri 05:20:20 PM 40.5997 -76.7928 315° West 162 186 10,500  Level New York Center
Fri 05:21:21 PM 40.6300 -76.8528 304° West 162 186 10,500  Level New York Center
Fri 05:22:22 PM 40.6483 -76.9036 295° West 169 194 10,500  Level New York Center
Fri 05:23:22 PM 40.6744 -76.9608 301° West 169 194 10,500  Level New York Center
Fri 05:24:22 PM 40.6967 -77.0147 299° West 164 189 10,500  Level New York Center
Fri 05:25:23 PM 40.7169 -77.0658 298° West 164 189 10,500  Level New York Center
Fri 05:26:21 PM 40.7411 -77.1175 302° West 164 189 10,500  Level New York Center
Fri 05:27:21 PM 40.7675 -77.1719 303° West 164 189 10,500  Level New York Center
Fri 05:28:22 PM 40.7894 -77.2289 297° West 170 196 10,500  Level New York Center
Fri 05:29:23 PM 40.8139 -77.2778 303° West 165 190 10,500  Level New York Center
Fri 05:30:23 PM 40.8400 -77.3325 302° West 165 190 10,500  Level New York Center
Fri 05:31:21 PM 40.8625 -77.3786 303° West 170 196 10,500 50 Level New York Center
Fri 05:32:22 PM 40.8822 -77.4353 295° West 170 196 10,600 50 Climbing New York Center
Fri 05:33:22 PM 40.8997 -77.4919 292° West 165 190 10,600 -50 Level New York Center
Fri 05:34:23 PM 40.9194 -77.5489 295° West 165 190 10,500  Descending New York Center
Fri 05:35:23 PM 40.9433 -77.6033 300° West 165 190 10,600  Climbing New York Center
Fri 05:37:48 PM 41.0053 -77.7353 302° West 173 199 10,500 -29 Descending Cleveland Center
Fri 05:38:48 PM 41.0314 -77.7864 304° West 173 199 10,500 100 Level Cleveland Center
Fri 05:39:48 PM 41.0517 -77.8406 296° West 167 192 10,700 100 Climbing Cleveland Center
Fri 05:40:48 PM 41.0778 -77.8892 305° West 162 186 10,700  Level Cleveland Center
Fri 05:41:48 PM 41.0975 -77.9325 301° West 162 186 10,700 -50 Level Cleveland Center
Fri 05:42:48 PM 41.1261 -77.9947 301° West 162 186 10,600  Descending Cleveland Center
Fri 05:43:48 PM 41.1461 -78.0489 296° West 162 186 10,700 50 Climbing Cleveland Center
Fri 05:44:48 PM 41.1681 -78.1033 298° West 162 186 10,700  Level Cleveland Center
Fri 05:45:48 PM 41.1922 -78.1547 302° West 162 186 10,700 -50 Level Cleveland Center
Fri 05:46:48 PM 41.2164 -78.2119 299° West 162 186 10,600 -50 Descending Cleveland Center
Fri 05:47:48 PM 41.2464 -78.2633 308° West 167 192 10,600 -50 Level Cleveland Center
Fri 05:48:48 PM 41.2706 -78.3150 302° West 167 192 10,500  Descending Cleveland Center
Fri 05:49:48 PM 41.2883 -78.3697 293° West 167 192 10,600 50 Climbing Cleveland Center
Fri 05:50:48 PM 41.3164 -78.4239 305° West 167 192 10,600  Level Cleveland Center
Fri 05:51:48 PM 41.3403 -78.4731 303° West 162 186 10,600  Level Cleveland Center
Fri 05:52:48 PM 41.3642 -78.5275 300° West 167 192 10,600  Level Cleveland Center
Fri 05:53:48 PM 41.3794 -78.5714 295° West 162 186 10,600  Level Cleveland Center
Fri 05:54:48 PM 41.3994 -78.6317 294° West 157 181 10,600 -50 Level Cleveland Center
Fri 05:55:48 PM 41.4231 -78.6836 301° West 157 181 10,500  Descending Cleveland Center
Fri 05:56:48 PM 41.4469 -78.7356 302° West 157 181 10,600 50 Climbing Cleveland Center
Fri 05:57:48 PM 41.4686 -78.7903 298° West 157 181 10,600  Level Cleveland Center
Fri 05:58:48 PM 41.4881 -78.8422 297° West 157 181 10,600  Level Cleveland Center
Fri 05:59:48 PM 41.5142 -78.9028 300° West 157 181 10,600  Level Cleveland Center
Fri 06:00:48 PM 41.5400 -78.9547 304° West 157 181 10,600  Level Cleveland Center
Fri 06:01:48 PM 41.5614 -79.0069 299° West 157 181 10,600  Level Cleveland Center
Fri 06:02:48 PM 41.5831 -79.0647 297° West 157 181 10,600  Level Cleveland Center
Fri 06:03:48 PM 41.6047 -79.1197 298° West 157 181 10,600  Level Cleveland Center
Fri 06:04:48 PM 41.6242 -79.1747 295° West 162 186 10,600  Level Cleveland Center
Fri 06:05:48 PM 41.6456 -79.2356 295° West 173 199 10,600  Level Cleveland Center
Fri 06:06:48 PM 41.6711 -79.2850 305° West 173 199 10,600  Level Cleveland Center
Fri 06:07:48 PM 41.6947 -79.3372 301° West 168 193 10,600  Level Cleveland Center
Fri 06:08:48 PM 41.7161 -79.3953 296° West 168 193 10,600  Level Cleveland Center
Fri 06:09:48 PM 41.7378 -79.4533 297° West 173 199 10,600  Level Cleveland Center
Fri 06:10:48 PM 41.7631 -79.5058 303° West 173 199 10,600 -50 Level Cleveland Center
Fri 06:11:48 PM 41.7867 -79.5583 301° West 179 206 10,500  Descending Cleveland Center
Fri 06:12:48 PM 41.8119 -79.6136 302° West 179 206 10,600 50 Climbing Cleveland Center
Fri 06:13:48 PM 41.8375 -79.6719 300° West 184 212 10,600  Level Cleveland Center
Fri 06:15:00 PM 41.8626 -79.7365 298° West  Level FlightAware Approximate
Fri 06:22:00 PM 42.0083 -80.1140 298° West  Level FlightAware Approximate
Fri 06:23:00 PM 42.0290 -80.1681 297° West  Level FlightAware Approximate
Fri 06:24:00 PM 42.0497 -80.2222 297° West  Level FlightAware Approximate
Fri 06:25:00 PM 42.0707 -80.2760 300° West  Level FlightAware Approximate
Fri 06:26:00 PM 42.0933 -80.3287 300° West  Level FlightAware Approximate
Fri 06:27:00 PM 42.1160 -80.3815 300° West  Level FlightAware Approximate
Fri 06:28:00 PM 42.1386 -80.4342 300° West  Level FlightAware Approximate
Fri 06:29:00 PM 42.1611 -80.4870 300° West  Level FlightAware Approximate
Fri 06:30:00 PM 42.1827 -80.5406 298° West  Level FlightAware Approximate
Fri 06:30:12 PM 42.2308 -80.6000 298° West 180 207 10,600  Level Cleveland Center
Fri 06:31:00 PM 42.2040 -80.5944 298° West  Level FlightAware Approximate
Fri 06:31:12 PM 42.2558 -80.6533 302° West 180 207 10,600  Level Cleveland Center
Fri 06:32:00 PM 42.2252 -80.6483 298° West  Level FlightAware Approximate
Fri 06:32:12 PM 42.2767 -80.7094 297° West 148 170 10,600  Level Cleveland Center
Fri 06:33:00 PM 42.2465 -80.7022 298° West  Level FlightAware Approximate
Fri 06:33:12 PM 42.3017 -80.7683 300° West 163 188 10,600  Level Cleveland Center
Fri 06:34:00 PM 42.2677 -80.7561 298° West  Level FlightAware Approximate
Fri 06:34:12 PM 42.3286 -80.8247 303° West 178 205 10,800  Level Cleveland Center
Fri 06:35:12 PM 42.3556 -80.8808 303° West 183 211 10,600 -100 Descending Cleveland Center
Fri 06:36:12 PM 42.3847 -80.9375 305° West 189 217 10,600  Level Cleveland Center
Fri 06:37:12 PM 42.4114 -80.9967 301° West 189 217 10,600  Level Cleveland Center
Fri 06:38:12 PM 42.4300 -81.0586 292° West 184 212 10,600  Level Cleveland Center
Fri 06:39:12 PM 42.4528 -81.1178 298° West 178 205 10,600  Level Cleveland Center
Fri 06:40:12 PM 42.4711 -81.1714 295° West 178 205 10,600  Level Cleveland Center
Fri 06:41:12 PM 42.4939 -81.2308 297° West 178 205 10,600  Level Cleveland Center
Fri 06:42:12 PM 42.5122 -81.2903 293° West 172 198 10,600  Level Cleveland Center
Fri 06:43:12 PM 42.5328 -81.3494 295° West 172 198 10,600  Level Cleveland Center
Fri 06:44:12 PM 42.5511 -81.4061 294° West 172 198 10,600  Level Cleveland Center
Fri 06:45:12 PM 42.5736 -81.4628 298° West 172 198 10,600  Level Cleveland Center
Fri 06:46:12 PM 42.5961 -81.5139 301° West 172 198 10,600  Level Cleveland Center
Fri 06:47:12 PM 42.6247 -81.5708 304° West 178 205 10,600  Level Cleveland Center
Fri 06:48:12 PM 42.6514 -81.6333 300° West 178 205 10,600  Level Cleveland Center
Fri 06:49:12 PM 42.6717 -81.6872 297° West 172 198 10,600  Level Cleveland Center
Fri 06:50:12 PM 42.6878 -81.7497 289° West 167 192 10,600  Level Cleveland Center
Fri 06:51:12 PM 42.7058 -81.8039 294° West 167 192 10,600  Level Cleveland Center
Fri 06:52:12 PM 42.7303 -81.8636 299° West 174 200 10,600  Level Cleveland Center
Fri 06:53:12 PM 42.7464 -81.9206 291° West 179 206 10,600  Level Cleveland Center
Fri 06:54:12 PM 42.7622 -81.9803 290° West 173 199 10,600  Level Cleveland Center
Fri 06:55:11 PM 42.7867 -82.0372 300° West 173 199 10,600  Level Cleveland Center
Fri 06:56:12 PM 42.8047 -82.0944 293° West 173 199 10,600 -50 Level Cleveland Center
Fri 06:57:12 PM 42.8225 -82.1514 293° West 173 199 10,500 -50 Descending Cleveland Center
Fri 06:58:12 PM 42.8425 -82.2114 294° West 173 199 10,500 50 Level Cleveland Center
Fri 06:59:12 PM 42.8628 -82.2658 297° West 173 199 10,600  Climbing Cleveland Center
Fri 07:00:12 PM 42.8847 -82.3258 297° West 173 199 10,500  Descending Cleveland Center
Fri 07:01:12 PM 42.9025 -82.3831 293° West 173 199 10,600  Climbing Cleveland Center
Fri 07:02:12 PM 42.9225 -82.4403 296° West 173 199 10,500 -50 Descending Cleveland Center
Fri 07:03:12 PM 42.9467 -82.4950 301° West 173 199 10,500 50 Level Cleveland Center
Fri 07:04:12 PM 42.9706 -82.5522 300° West 168 193 10,600  Climbing Cleveland Center
Fri 07:05:12 PM 42.9906 -82.6097 295° West 173 199 10,500  Descending Cleveland Center
Fri 07:06:12 PM 43.0103 -82.6700 294° West 173 199 10,600 -100 Climbing Cleveland Center
Fri 07:07:12 PM 43.0300 -82.7331 293° West 173 199 10,300 -300 Descending Cleveland Center
Fri 07:08:12 PM 43.0519 -82.7822 301° West 178 205 10,000 -350 Descending Cleveland Center
Fri 07:09:12 PM 43.0778 -82.8542 296° West 184 212 9,600 -450 Descending Cleveland Center
Fri 07:10:12 PM 43.1056 -82.9233 299° West 184 212 9,100 -450 Descending Cleveland Center
Fri 07:11:12 PM 43.1333 -82.9872 301° West 184 212 8,700 -450 Descending Cleveland Center
Fri 07:12:12 PM 43.1592 -83.0450 302° West 184 212 8,200 -450 Descending Cleveland Center
Fri 07:13:12 PM 43.1808 -83.1058 296° West 178 205 7,800 -350 Descending Cleveland Center
Fri 07:14:12 PM 43.2044 -83.1694 297° West 178 205 7,500 -350 Descending Cleveland Center
Fri 07:15:12 PM 43.2258 -83.2300 296° West 178 205 7,100 -400 Descending Cleveland Center
Fri 07:16:12 PM 43.2456 -83.2881 295° West 178 205 6,700 -450 Descending Cleveland Center
Fri 07:17:12 PM 43.2711 -83.3519 299° West 178 205 6,200 -450 Descending Cleveland Center
Fri 07:18:12 PM 43.2886 -83.4039 295° West 184 212 5,800 -450 Descending Cleveland Center
Fri 07:19:12 PM 43.3136 -83.4822 294° West 178 205 5,300 -500 Descending Cleveland Center
Fri 07:20:12 PM 43.3372 -83.5403 299° West 188 216 4,800 -450 Descending Cleveland Center
Fri 07:21:12 PM 43.3606 -83.6014 298° West 181 208 4,400 -350 Descending Cleveland Center
Fri 07:22:12 PM 43.3797 -83.6681 292° West 176 203 4,100 -250 Descending Cleveland Center
Fri 07:23:12 PM 43.4011 -83.7264 297° West 176 203 3,900 -200 Descending Cleveland Center
Fri 07:24:12 PM 43.4164 -83.7728 294° West 176 203 3,700 -200 Descending Cleveland Center
Fri 07:26:00 PM 43.4333 -83.8500 313° West  Level FlightAware Approximate
Fri 07:33:00 PM 43.4334 -83.8623 313° West  Level Estimated
Fri 07:34:00 PM 43.4334 -83.8623 313° West  Level Estimated
Fri 07:35:00 PM 43.4334 -83.8623 313° West  Level Estimated
Fri 07:36:00 PM 43.4334 -83.8623 313° West  Level Estimated
Fri 07:37:00 PM 43.4334 -83.8623 313° West  Level Estimated

Login

Don't have an account? Register now (free) for customized features, flight alerts, and more!